Time;durP1;ratioP1;P1;durP2;ratioP2;P2;SDS_P1;SDS_P2;PMS_P1;PMS_P2;Temp;Humidity;BMP_temperature;BMP_pressure;BME280_temperature;BME280_humidity;BME280_pressure;Samples;Min_cycle;Max_cycle;Signal;HPM_P1;HPM_P2
2021/12/09 00:01:04;;;;;;;21.42;12.40;;;;;;;;;;4347495;33;19966;-72
2021/12/09 00:03:35;;;;;;;28.00;12.93;;;;;;;;;;4360605;33;20069;-72
2021/12/09 00:06:03;;;;;;;23.35;14.32;;;;;;;;;;4361011;32;20397;-72
2021/12/09 00:08:29;;;;;;;23.62;13.13;;;;;;;;;;4360743;32;20103;-72
2021/12/09 00:10:54;;;;;;;;;;;;;;;;;;4361535;32;20039;-72
2021/12/09 00:13:24;;;;;;;23.75;12.63;;;;;;;;;;4360867;33;20248;-72
2021/12/09 00:15:49;;;;;;;26.52;13.77;;;;;;;;;;4360847;32;20054;-72
2021/12/09 00:18:14;;;;;;;;;;;;;;;;;;4361140;32;20122;-72
2021/12/09 00:20:40;;;;;;;27.00;13.05;;;;;;;;;;4360535;33;19935;-72
2021/12/09 00:23:07;;;;;;;;;;;;;;;;;;4361010;32;20117;-72
2021/12/09 00:25:35;;;;;;;22.15;12.90;;;;;;;;;;4360603;32;19953;-72
2021/12/09 00:28:01;;;;;;;24.00;13.00;;;;;;;;;;4360515;32;20099;-72
2021/12/09 00:30:26;;;;;;;;;;;;;;;;;;4361887;32;20054;-72
2021/12/09 00:32:54;;;;;;;28.17;13.50;;;;;;;;;;4346921;33;19934;-72
2021/12/09 00:35:32;;;;;;;32.08;14.52;;;;;;;;;;4347374;33;20039;-72
2021/12/09 00:38:04;;;;;;;28.12;14.18;;;;;;;;;;4360539;32;20049;-72
2021/12/09 00:40:29;;;;;;;29.65;14.18;;;;;;;;;;4347450;33;20036;-72
2021/12/09 00:42:54;;;;;;;;;;;;;;;;;;4360432;33;20031;-72
2021/12/09 00:45:57;;;;;;;30.02;13.77;;;;;;;;;;4360034;33;19946;-72
2021/12/09 00:48:38;;;;;;;25.98;14.18;;;;;;;;;;4360792;32;20027;-72
2021/12/09 00:51:38;;;;;;;24.95;12.52;;;;;;;;;;4360383;32;20425;-72
2021/12/09 00:54:04;;;;;;;21.50;13.70;;;;;;;;;;4357006;32;20098;-72
2021/12/09 00:56:29;;;;;;;;;;;;;;;;;;4360420;32;20312;-72
2021/12/09 00:58:55;;;;;;;23.38;12.25;;;;;;;;;;4360208;32;19938;-72
2021/12/09 01:01:45;;;;;;;20.17;12.52;;;;;;;;;;4360698;32;20069;-72
2021/12/09 01:04:31;;;;;;;27.77;13.13;;;;;;;;;;4359347;33;20035;-72
2021/12/09 01:06:58;;;;;;;20.35;12.05;;;;;;;;;;4360062;33;20063;-73
2021/12/09 01:09:24;;;;;;;26.62;13.38;;;;;;;;;;4360155;33;20027;-72
2021/12/09 01:11:49;;;;;;;;;;;;;;;;;;4347300;33;20061;-72
2021/12/09 01:14:23;;;;;;;25.65;12.15;;;;;;;;;;4361746;33;19935;-72
2021/12/09 01:16:51;;;;;;;23.20;11.35;;;;;;;;;;4361226;33;20024;-72
2021/12/09 01:19:16;;;;;;;32.70;13.45;;;;;;;;;;4360176;32;20093;-72
2021/12/09 01:21:45;;;;;;;;;;;;;;;;;;4362902;33;20390;-72
2021/12/09 01:24:10;;;;;;;21.62;13.07;;;;;;;;;;4363431;32;19953;-72
2021/12/09 01:26:36;;;;;;;;;;;;;;;;;;4363923;32;20031;-72
2021/12/09 01:29:08;;;;;;;30.65;13.52;;;;;;;;;;4349237;33;19938;-72
2021/12/09 01:31:37;;;;;;;21.70;13.05;;;;;;;;;;4363052;32;20031;-72
2021/12/09 01:34:04;;;;;;;24.33;12.20;;;;;;;;;;4363408;32;20407;-72
2021/12/09 01:36:34;;;;;;;28.17;11.90;;;;;;;;;;4363022;32;20058;-72
2021/12/09 01:39:01;;;;;;;23.52;11.02;;;;;;;;;;4362825;32;20027;-72
2021/12/09 01:41:39;;;;;;;;;;;;;;;;;;;;;
2021/12/09 01:44:13;;;;;;;28.40;12.52;;;;;;;;;;4362987;32;20039;-72
2021/12/09 01:46:45;;;;;;;20.45;10.85;;;;;;;;;;4363625;32;20031;-72
2021/12/09 01:49:10;;;;;;;22.52;11.75;;;;;;;;;;4363331;32;20094;-72
2021/12/09 01:51:36;;;;;;;;;;;;;;;;;;4363109;32;20036;-72
2021/12/09 01:54:08;;;;;;;25.55;11.70;;;;;;;;;;4362891;32;19946;-72
2021/12/09 01:56:35;;;;;;;23.25;11.02;;;;;;;;;;4362626;32;20043;-72
2021/12/09 01:59:10;;;;;;;19.42;11.18;;;;;;;;;;4363160;32;20027;-72
2021/12/09 02:01:42;;;;;;;20.58;10.85;;;;;;;;;;4362965;32;20113;-73
2021/12/09 02:04:19;;;;;;;23.38;10.77;;;;;;;;;;4362827;32;20061;-72
2021/12/09 02:06:45;;;;;;;25.00;11.43;;;;;;;;;;4362569;32;20401;-72
2021/12/09 02:09:10;;;;;;;;;;;;;;;;;;4362842;33;20065;-73
2021/12/09 02:11:38;;;;;;;24.24;10.92;;;;;;;;;;4363048;32;19976;-72
2021/12/09 02:14:04;;;;;;;16.50;10.70;;;;;;;;;;4349693;33;20092;-72
2021/12/09 02:16:33;;;;;;;25.40;10.98;;;;;;;;;;4362162;32;20051;-72
2021/12/09 02:19:02;;;;;;;23.33;9.90;;;;;;;;;;4362686;32;20031;-72
2021/12/09 02:21:28;;;;;;;23.33;10.77;;;;;;;;;;4362140;33;20039;-72
2021/12/09 02:24:07;;;;;;;23.90;11.45;;;;;;;;;;4362160;33;20083;-73
2021/12/09 02:26:35;;;;;;;23.80;11.12;;;;;;;;;;4362108;32;20051;-72
2021/12/09 02:29:33;;;;;;;19.62;11.10;;;;;;;;;;4362466;32;20058;-72
2021/12/09 02:32:01;;;;;;;32.20;12.05;;;;;;;;;;4362175;32;20106;-72
2021/12/09 02:34:42;;;;;;;26.60;11.73;;;;;;;;;;4362262;33;20066;-72
2021/12/09 02:37:10;;;;;;;23.60;10.90;;;;;;;;;;4362633;32;20081;-72
2021/12/09 02:39:58;;;;;;;26.00;11.20;;;;;;;;;;4362219;33;20327;-71
2021/12/09 02:45:24;;;;;;;23.17;10.70;;;;;;;;;;4361782;32;20137;-72
2021/12/09 02:47:49;;;;;;;24.55;11.43;;;;;;;;;;4362350;32;20418;-72
2021/12/09 02:50:14;;;;;;;;;;;;;;;;;;4362282;32;20031;-72
2021/12/09 02:52:43;;;;;;;25.45;11.05;;;;;;;;;;4362196;33;19935;-72
2021/12/09 02:55:08;;;;;;;23.00;10.77;;;;;;;;;;4361684;32;20032;-72
2021/12/09 02:57:34;;;;;;;;;;;;;;;;;;4363566;32;20299;-72
2021/12/09 02:59:59;;;;;;;17.80;10.32;;;;;;;;;;4361445;32;19989;-72
2021/12/09 03:02:24;;;;;;;;;;;;;;;;;;4362686;32;20354;-72
2021/12/09 03:04:52;;;;;;;25.25;11.77;;;;;;;;;;4361729;32;19958;-72
2021/12/09 03:07:23;;;;;;;20.50;10.98;;;;;;;;;;4362588;32;20526;-72
2021/12/09 03:09:52;;;;;;;27.33;13.88;;;;;;;;;;4348805;33;20377;-72
2021/12/09 03:12:22;;;;;;;23.40;11.40;;;;;;;;;;4361783;32;20032;-72
2021/12/09 03:18:13;;;;;;;32.08;12.93;;;;;;;;;;4315880;33;20442;-72
2021/12/09 03:20:38;;;;;;;23.35;12.60;;;;;;;;;;4315363;33;20063;-72
2021/12/09 03:23:03;;;;;;;24.67;12.75;;;;;;;;;;4350700;33;20047;-72
2021/12/09 03:25:28;;;;;;;;;;;;;;;;;;4362617;32;20082;-73
2021/12/09 03:27:54;;;;;;;23.42;11.80;;;;;;;;;;4361661;33;19934;-72
2021/12/09 03:30:19;;;;;;;;;;;;;;;;;;4361619;33;20218;-72
2021/12/09 03:32:45;;;;;;;28.35;12.98;;;;;;;;;;4361173;32;20334;-72
2021/12/09 03:35:10;;;;;;;;;;;;;;;;;;4362371;32;20103;-72
2021/12/09 03:37:36;;;;;;;26.75;12.05;;;;;;;;;;4361418;32;19980;-72
2021/12/09 03:40:01;;;;;;;;;;;;;;;;;;4347928;33;20330;-72
2021/12/09 03:43:02;;;;;;;26.73;12.10;;;;;;;;;;4361392;32;19935;-72
2021/12/09 03:45:36;;;;;;;23.12;12.35;;;;;;;;;;4356736;33;20377;-72
2021/12/09 03:48:02;;;;;;;36.00;13.55;;;;;;;;;;4362118;32;20118;-72
2021/12/09 03:50:28;;;;;;;33.15;11.80;;;;;;;;;;4361429;32;20027;-72
2021/12/09 03:52:55;;;;;;;;;;;;;;;;;;4362306;32;20141;-72
2021/12/09 03:55:21;;;;;;;27.02;12.15;;;;;;;;;;4361213;32;19974;-72
2021/12/09 03:57:46;;;;;;;;;;;;;;;;;;4362361;32;20311;-73
2021/12/09 04:00:12;;;;;;;28.26;12.46;;;;;;;;;;4361383;32;19949;-72
2021/12/09 04:02:37;;;;;;;;;;;;;;;;;;4335358;33;20028;-72
2021/12/09 04:05:02;;;;;;;30.23;10.88;;;;;;;;;;4360890;32;20288;-72
2021/12/09 04:07:28;;;;;;;;;;;;;;;;;;4362620;32;20027;-72
2021/12/09 04:10:09;;;;;;;34.67;11.82;;;;;;;;;;4360998;33;20257;-72
2021/12/09 04:12:34;;;;;;;21.45;11.45;;;;;;;;;;4360951;33;20039;-72
2021/12/09 04:14:59;;;;;;;;;;;;;;;;;;4362228;32;20095;-73
2021/12/09 04:17:25;;;;;;;32.70;13.15;;;;;;;;;;4361341;32;19970;-72
2021/12/09 04:19:50;;;;;;;;;;;;;;;;;;4360450;33;20444;-73
2021/12/09 04:22:19;;;;;;;23.98;12.13;;;;;;;;;;4346530;33;19974;-74
2021/12/09 04:24:45;;;;;;;29.05;13.13;;;;;;;;;;4354211;32;20112;-73
2021/12/09 04:27:10;;;;;;;;;;;;;;;;;;4346324;33;20028;-73
2021/12/09 04:29:36;;;;;;;26.90;11.46;;;;;;;;;;4347670;33;19935;-73
2021/12/09 04:32:01;;;;;;;;;;;;;;;;;;4357408;33;20046;-73
2021/12/09 04:34:27;;;;;;;32.17;12.70;;;;;;;;;;4360255;32;19947;-72
2021/12/09 04:36:52;;;;;;;;;;;;;;;;;;4347949;33;20471;-73
2021/12/09 04:39:17;;;;;;;26.33;12.25;;;;;;;;;;4360134;32;19999;-73
2021/12/09 04:41:43;;;;;;;;;;;;;;;;;;4360598;32;20104;-74
2021/12/09 04:44:11;;;;;;;26.10;11.77;;;;;;;;;;4359098;32;19954;-74
2021/12/09 04:46:45;;;;;;;30.45;12.52;;;;;;;;;;4361117;32;20077;-74
2021/12/09 04:49:17;;;;;;;26.83;11.52;;;;;;;;;;4346705;33;20066;-72
2021/12/09 04:51:50;;;;;;;25.90;12.98;;;;;;;;;;4361570;32;20055;-73
2021/12/09 04:54:15;;;;;;;32.03;11.90;;;;;;;;;;4360803;32;20102;-73
2021/12/09 04:56:40;;;;;;;;;;;;;;;;;;4360411;32;20052;-73
2021/12/09 04:59:06;;;;;;;24.02;10.68;;;;;;;;;;4360781;32;19950;-72
2021/12/09 05:01:31;;;;;;;;;;;;;;;;;;4347632;33;20062;-72
2021/12/09 05:03:56;;;;;;;36.76;12.24;;;;;;;;;;4360156;33;19994;-72
2021/12/09 05:06:22;;;;;;;;;;;;;;;;;;4360696;33;20093;-74
2021/12/09 05:08:48;;;;;;;30.27;11.50;;;;;;;;;;4360826;33;19934;-74
2021/12/09 05:14:02;;;;;;;34.00;12.57;;;;;;;;;;4360368;33;20028;-73
2021/12/09 05:16:27;;;;;;;;;;;;;;;;;;4347087;33;20422;-73
2021/12/09 05:18:58;;;;;;;31.58;12.70;;;;;;;;;;4360000;33;19934;-73
2021/12/09 05:21:24;;;;;;;32.88;11.35;;;;;;;;;;4360179;33;20079;-75
2021/12/09 05:23:49;;;;;;;;;;;;;;;;;;4361036;33;20035;-73
2021/12/09 05:26:17;;;;;;;28.58;10.75;;;;;;;;;;4360866;33;19952;-75
2021/12/09 05:28:44;;;;;;;30.73;11.95;;;;;;;;;;4359850;33;20035;-73
2021/12/09 05:33:56;;;;;;;29.65;10.75;;;;;;;;;;4361307;33;20066;-73
2021/12/09 05:36:21;;;;;;;36.40;12.25;;;;;;;;;;4359586;33;20031;-72
2021/12/09 05:38:46;;;;;;;;;;;;;;;;;;4360177;33;20054;-71
2021/12/09 05:41:12;;;;;;;27.25;10.55;;;;;;;;;;4360559;33;20272;-72
2021/12/09 05:43:37;;;;;;;;;;;;;;;;;;4360227;33;20082;-72
2021/12/09 05:46:02;;;;;;;25.08;11.85;;;;;;;;;;4359618;33;19968;-72
2021/12/09 05:48:28;;;;;;;;;;;;;;;;;;4360551;33;20027;-73
2021/12/09 05:51:08;;;;;;;25.20;10.27;;;;;;;;;;4346289;33;20025;-73
2021/12/09 05:53:37;;;;;;;24.15;10.38;;;;;;;;;;4346417;33;20026;-73
2021/12/09 05:56:30;;;;;;;28.92;11.65;;;;;;;;;;4359606;33;20048;-73
2021/12/09 05:59:01;;;;;;;29.80;11.85;;;;;;;;;;4359939;33;20066;-73
2021/12/09 06:01:26;;;;;;;25.10;11.95;;;;;;;;;;4360438;33;20117;-73
2021/12/09 06:03:58;;;;;;;;;;;;;;;;;;4359585;33;20365;-73
2021/12/09 06:06:23;;;;;;;24.05;9.65;;;;;;;;;;4360291;32;19938;-72
2021/12/09 06:08:49;;;;;;;;;;;;;;;;;;4362494;32;20061;-72
2021/12/09 06:11:14;;;;;;;32.08;9.93;;;;;;;;;;4349436;33;20248;-72
2021/12/09 06:13:39;;;;;;;;;;;;;;;;;;4362915;32;20028;-72
2021/12/09 06:16:18;;;;;;;;;;;;;;;;;;;;;
2021/12/09 06:18:43;;;;;;;27.00;9.77;;;;;;;;;;4363157;32;20069;-73
2021/12/09 06:21:08;;;;;;;;;;;;;;;;;;4362659;32;20027;-72
2021/12/09 06:23:36;;;;;;;18.50;10.38;;;;;;;;;;4362430;32;19938;-73
2021/12/09 06:26:02;;;;;;;31.17;9.73;;;;;;;;;;4362053;32;20031;-72
2021/12/09 06:28:29;;;;;;;;;;;;;;;;;;4362169;32;20053;-74
2021/12/09 06:30:55;;;;;;;19.75;9.10;;;;;;;;;;4362577;32;19942;-74
2021/12/09 06:33:20;;;;;;;;;;;;;;;;;;4362201;33;20376;-73
2021/12/09 06:35:45;;;;;;;29.33;10.05;;;;;;;;;;4362578;32;20366;-73
2021/12/09 06:38:15;;;;;;;;;;;;;;;;;;4362300;32;20065;-72
2021/12/09 06:40:45;;;;;;;25.30;10.75;;;;;;;;;;4362346;33;19935;-72
2021/12/09 06:43:11;;;;;;;28.45;10.93;;;;;;;;;;4362407;32;20077;-72
2021/12/09 06:45:36;;;;;;;;;;;;;;;;;;4361299;32;20063;-72
2021/12/09 06:48:01;;;;;;;27.33;10.00;;;;;;;;;;4348784;33;20261;-71
2021/12/09 06:50:26;;;;;;;;;;;;;;;;;;4362577;32;20023;-72
2021/12/09 06:52:52;;;;;;;25.48;10.50;;;;;;;;;;4348223;33;19972;-72
2021/12/09 06:55:17;;;;;;;;;;;;;;;;;;4361966;32;20114;-73
2021/12/09 06:57:43;;;;;;;33.38;11.84;;;;;;;;;;4362499;32;19969;-72
2021/12/09 07:00:10;;;;;;;32.97;12.23;;;;;;;;;;4361794;32;20066;-72
2021/12/09 07:02:35;;;;;;;28.48;12.30;;;;;;;;;;4361719;32;20035;-70
2021/12/09 07:05:00;;;;;;;;;;;;;;;;;;4347814;33;20070;-73
2021/12/09 07:07:25;;;;;;;32.33;11.70;;;;;;;;;;4361645;32;19992;-72
2021/12/09 07:09:51;;;;;;;;;;;;;;;;;;4362347;32;20028;-73
2021/12/09 07:12:16;;;;;;;33.72;11.90;;;;;;;;;;4361838;32;19985;-71
2021/12/09 07:14:43;;;;;;;;;;;;;;;;;;4362591;32;20128;-73
2021/12/09 07:17:08;;;;;;;28.62;12.00;;;;;;;;;;4361703;32;19972;-72
2021/12/09 07:19:41;;;;;;;;;;;;;;;;;;4360985;32;20043;-73
2021/12/09 07:22:06;;;;;;;22.25;10.35;;;;;;;;;;4361611;32;19974;-72
2021/12/09 07:24:35;;;;;;;;;;;;;;;;;;4348476;33;20080;-73
2021/12/09 07:27:00;;;;;;;29.27;10.73;;;;;;;;;;4361360;32;19946;-73
2021/12/09 07:29:34;;;;;;;;;;;;;;;;;;4362473;32;20058;-72
2021/12/09 07:32:00;;;;;;;34.20;10.43;;;;;;;;;;4362703;32;19967;-71
2021/12/09 07:34:25;;;;;;;;;;;;;;;;;;4361530;32;20024;-72
2021/12/09 07:36:50;;;;;;;26.52;10.77;;;;;;;;;;4361454;33;20000;-72
2021/12/09 07:39:25;;;;;;;;;;;;;;;;;;;;;
2021/12/09 07:41:51;;;;;;;43.03;12.35;;;;;;;;;;4361008;32;19938;-71
2021/12/09 07:47:23;;;;;;;25.73;10.15;;;;;;;;;;4314397;33;20464;-73
2021/12/09 07:50:10;;;;;;;26.90;10.25;;;;;;;;;;4314014;33;20040;-72
2021/12/09 07:52:34;;;;;;;22.83;9.40;;;;;;;;;;4314191;33;20088;-73
2021/12/09 07:54:59;;;;;;;;;;;;;;;;;;4315222;33;20040;-72
2021/12/09 07:57:28;;;;;;;24.52;9.88;;;;;;;;;;4313824;33;19963;-73
2021/12/09 07:59:53;;;;;;;22.77;9.60;;;;;;;;;;4302855;33;20044;-71
2021/12/09 08:02:21;;;;;;;;;;;;;;;;;;4314461;33;20344;-72
2021/12/09 08:04:47;;;;;;;31.37;11.98;;;;;;;;;;4314350;33;19943;-72
2021/12/09 08:07:19;;;;;;;;;;;;;;;;;;4315771;33;20079;-72
2021/12/09 08:09:47;;;;;;;22.20;9.15;;;;;;;;;;4328190;33;19942;-72
2021/12/09 08:12:13;;;;;;;16.58;8.48;;;;;;;;;;4345663;33;20055;-72
2021/12/09 08:14:41;;;;;;;;;;;;;;;;;;4346314;33;20036;-72
2021/12/09 08:17:13;;;;;;;19.60;9.50;;;;;;;;;;4346019;33;19982;-73
2021/12/09 08:19:38;;;;;;;23.67;9.48;;;;;;;;;;4345334;33;20071;-73
2021/12/09 08:22:04;;;;;;;;;;;;;;;;;;4345495;33;20082;-73
2021/12/09 08:24:39;;;;;;;31.08;9.35;;;;;;;;;;4345735;33;20002;-72
2021/12/09 08:27:14;;;;;;;19.97;9.00;;;;;;;;;;4346487;33;20035;-72
2021/12/09 08:29:39;;;;;;;20.20;8.70;;;;;;;;;;4345967;33;20198;-72
2021/12/09 08:32:04;;;;;;;;;;;;;;;;;;4345872;33;20040;-73
2021/12/09 08:34:38;;;;;;;18.80;9.10;;;;;;;;;;4345809;33;19981;-73
2021/12/09 08:37:04;;;;;;;18.20;9.20;;;;;;;;;;4345378;33;20124;-72
2021/12/09 08:39:29;;;;;;;;;;;;;;;;;;4345532;33;20063;-73
2021/12/09 08:42:02;;;;;;;18.98;9.02;;;;;;;;;;4345598;33;19946;-73
2021/12/09 08:44:27;;;;;;;25.83;10.60;;;;;;;;;;4345834;33;20036;-74
2021/12/09 08:46:52;;;;;;;;;;;;;;;;;;4337273;33;20130;-74
2021/12/09 08:49:18;;;;;;;21.10;8.68;;;;;;;;;;4346147;33;20286;-72
2021/12/09 08:51:43;;;;;;;;;;;;;;;;;;4345803;33;20058;-73
2021/12/09 08:54:09;;;;;;;24.45;8.88;;;;;;;;;;4344352;33;19973;-72
2021/12/09 08:56:34;;;;;;;;;;;;;;;;;;4354945;33;20148;-73
2021/12/09 08:59:07;;;;;;;23.10;8.73;;;;;;;;;;4356547;32;19961;-73
2021/12/09 09:01:38;;;;;;;21.80;9.63;;;;;;;;;;4359138;32;20035;-73
2021/12/09 09:04:12;;;;;;;21.50;9.82;;;;;;;;;;4358097;32;20023;-72
2021/12/09 09:07:01;;;;;;;20.67;8.85;;;;;;;;;;4346552;33;20095;-73
2021/12/09 09:12:34;;;;;;;23.85;9.68;;;;;;;;;;4333351;33;20043;-73
2021/12/09 09:14:59;;;;;;;;;;;;;;;;;;4358975;33;20082;-72
2021/12/09 09:20:11;;;;;;;20.67;9.13;;;;;;;;;;4350960;33;20444;-71
2021/12/09 09:22:43;;;;;;;20.75;9.57;;;;;;;;;;4359204;33;20473;-71
2021/12/09 09:25:29;;;;;;;22.27;10.60;;;;;;;;;;4359421;33;20031;-72
2021/12/09 09:28:04;;;;;;;23.63;8.83;;;;;;;;;;4360428;33;20031;-72
2021/12/09 09:30:56;;;;;;;19.27;10.10;;;;;;;;;;4359650;33;20073;-72
2021/12/09 09:33:23;;;;;;;21.35;8.98;;;;;;;;;;4359437;33;20039;-72
2021/12/09 09:35:49;;;;;;;16.67;9.57;;;;;;;;;;4358969;33;20149;-73
2021/12/09 09:38:14;;;;;;;;;;;;;;;;;;4356946;33;20031;-74
2021/12/09 09:40:41;;;;;;;25.88;10.10;;;;;;;;;;4345714;33;20277;-73
2021/12/09 09:43:28;;;;;;;21.92;10.43;;;;;;;;;;4347161;33;20109;-73
2021/12/09 09:45:54;;;;;;;24.52;10.63;;;;;;;;;;4351005;33;20042;-73
2021/12/09 09:48:35;;;;;;;23.35;12.88;;;;;;;;;;4362271;32;20092;-72
2021/12/09 09:51:01;;;;;;;31.77;11.57;;;;;;;;;;4361811;33;20035;-72
2021/12/09 09:53:26;;;;;;;;;;;;;;;;;;4362444;32;20378;-74
2021/12/09 09:55:51;;;;;;;30.05;12.60;;;;;;;;;;4365733;32;20285;-74
2021/12/09 09:58:17;;;;;;;;;;;;;;;;;;4362835;32;20369;-73
2021/12/09 10:00:42;;;;;;;30.46;12.94;;;;;;;;;;4362912;32;19954;-73
2021/12/09 10:03:15;;;;;;;;;;;;;;;;;;4349249;33;20043;-74
2021/12/09 10:05:43;;;;;;;31.45;12.35;;;;;;;;;;4363243;32;19938;-73
2021/12/09 10:08:08;;;;;;;23.62;13.35;;;;;;;;;;4362498;32;20036;-73
2021/12/09 10:10:33;;;;;;;;;;;;;;;;;;4362112;33;20062;-74
2021/12/09 10:13:01;;;;;;;36.38;15.27;;;;;;;;;;4362254;32;19972;-73
2021/12/09 10:15:40;;;;;;;29.70;13.30;;;;;;;;;;4361537;32;20201;-72
2021/12/09 10:18:08;;;;;;;26.12;14.23;;;;;;;;;;4362526;33;20426;-72
2021/12/09 10:20:42;;;;;;;40.58;14.52;;;;;;;;;;4360992;33;20082;-73
2021/12/09 10:23:24;;;;;;;36.25;17.27;;;;;;;;;;4354070;32;20227;-73
2021/12/09 10:26:12;;;;;;;27.67;14.60;;;;;;;;;;4357956;33;20066;-73
2021/12/09 10:28:40;;;;;;;35.75;16.27;;;;;;;;;;4361883;32;20384;-72
2021/12/09 10:31:14;;;;;;;32.15;15.95;;;;;;;;;;4360912;32;20094;-72
2021/12/09 10:34:02;;;;;;;38.40;16.37;;;;;;;;;;4362797;32;20028;-73
2021/12/09 10:36:45;;;;;;;32.83;14.82;;;;;;;;;;4358710;32;20040;-73
2021/12/09 10:39:29;;;;;;;38.58;17.25;;;;;;;;;;4369184;32;20034;-73
2021/12/09 10:41:56;;;;;;;36.90;16.85;;;;;;;;;;4367547;32;20479;-72
2021/12/09 10:44:37;;;;;;;39.60;17.02;;;;;;;;;;4362091;32;20041;-73
2021/12/09 10:47:08;;;;;;;33.08;17.42;;;;;;;;;;4361546;32;20101;-72
2021/12/09 10:49:41;;;;;;;37.67;18.73;;;;;;;;;;4359500;32;20039;-73
2021/12/09 10:52:30;;;;;;;44.58;20.40;;;;;;;;;;4359422;32;20078;-72
2021/12/09 10:54:56;;;;;;;35.38;20.75;;;;;;;;;;4360304;32;20097;-73
2021/12/09 10:57:21;;;;;;;;;;;;;;;;;;4359400;32;20461;-73
2021/12/09 10:59:46;;;;;;;40.25;18.75;;;;;;;;;;4360406;32;20070;-73
2021/12/09 11:02:11;;;;;;;;;;;;;;;;;;4350282;32;20039;-73
2021/12/09 11:04:37;;;;;;;31.75;18.37;;;;;;;;;;4337855;33;19997;-72
2021/12/09 11:07:03;;;;;;;;;;;;;;;;;;4358446;33;20087;-73
2021/12/09 11:09:31;;;;;;;34.05;18.37;;;;;;;;;;4361891;32;19938;-74
2021/12/09 11:11:58;;;;;;;43.22;21.10;;;;;;;;;;4360865;33;20495;-73
2021/12/09 11:14:29;;;;;;;36.63;20.42;;;;;;;;;;4360482;33;20108;-73
2021/12/09 11:17:03;;;;;;;38.28;20.67;;;;;;;;;;4346857;33;20031;-74
2021/12/09 11:19:41;;;;;;;42.15;22.05;;;;;;;;;;4361142;32;20035;-73
2021/12/09 11:22:29;;;;;;;41.22;19.65;;;;;;;;;;4361538;32;20107;-75
2021/12/09 11:24:59;;;;;;;49.60;23.45;;;;;;;;;;4361228;32;20043;-73
2021/12/09 11:27:26;;;;;;;48.20;23.30;;;;;;;;;;4359798;32;20065;-74
2021/12/09 11:29:55;;;;;;;36.90;21.95;;;;;;;;;;4360947;32;20043;-74
2021/12/09 11:32:30;;;;;;;46.83;24.00;;;;;;;;;;4360367;32;20059;-73
2021/12/09 11:35:02;;;;;;;51.17;24.45;;;;;;;;;;4338048;33;20221;-74
2021/12/09 11:40:01;;;;;;;43.58;25.12;;;;;;;;;;4360822;32;20050;-74
2021/12/09 11:42:33;;;;;;;48.35;24.10;;;;;;;;;;4360587;32;20436;-73
2021/12/09 11:44:59;;;;;;;46.37;25.02;;;;;;;;;;4357391;33;20368;-74
2021/12/09 11:47:24;;;;;;;;;;;;;;;;;;4360957;33;20075;-74
2021/12/09 11:49:51;;;;;;;55.25;25.17;;;;;;;;;;4360340;32;19945;-73
2021/12/09 11:52:17;;;;;;;48.42;26.00;;;;;;;;;;4360235;32;20129;-74
2021/12/09 11:54:58;;;;;;;49.70;26.02;;;;;;;;;;4360938;33;20039;-74
2021/12/09 11:57:35;;;;;;;42.15;26.85;;;;;;;;;;4374593;32;20385;-74
2021/12/09 12:07:03;;;;;;;61.17;28.33;;;;;;;;;;4360088;33;20551;-74
2021/12/09 12:21:35;;;;;;;52.62;31.20;;;;;;;;;;4353897;33;20091;-74
2021/12/09 12:26:42;;;;;;;;;;;;;;;;;;4360376;32;20089;-74
2021/12/09 12:29:30;;;;;;;64.68;33.97;;;;;;;;;;4359051;32;19992;-75
2021/12/09 12:37:45;;;;;;;58.87;33.35;;;;;;;;;;4358295;32;20066;-74
2021/12/09 12:40:12;;;;;;;54.55;30.75;;;;;;;;;;4342871;33;20027;-74
2021/12/09 12:42:52;;;;;;;59.53;31.15;;;;;;;;;;4354648;33;20039;-74
2021/12/09 12:45:32;;;;;;;59.67;32.95;;;;;;;;;;4358692;32;20219;-73
2021/12/09 12:48:26;;;;;;;55.55;32.13;;;;;;;;;;4358969;33;20048;-74
2021/12/09 12:51:03;;;;;;;54.22;30.27;;;;;;;;;;4359580;32;20030;-73
2021/12/09 12:53:40;;;;;;;56.92;29.90;;;;;;;;;;4359266;32;20047;-74
2021/12/09 12:56:45;;;;;;;47.33;29.33;;;;;;;;;;4358917;32;20074;-73
2021/12/09 12:59:35;;;;;;;56.65;28.65;;;;;;;;;;4358603;33;20048;-74
2021/12/09 13:02:02;;;;;;;53.63;30.70;;;;;;;;;;4345160;33;20047;-74
2021/12/09 13:04:40;;;;;;;60.00;29.10;;;;;;;;;;4358726;33;20038;-74
2021/12/09 13:08:21;;;;;;;55.15;29.73;;;;;;;;;;4341284;33;20051;-74
2021/12/09 13:16:41;;;;;;;52.80;28.05;;;;;;;;;;4361090;32;20298;-72
2021/12/09 13:19:32;;;;;;;51.47;29.02;;;;;;;;;;4362640;32;20082;-74
2021/12/09 13:22:02;;;;;;;53.97;29.08;;;;;;;;;;4362982;32;20093;-73
2021/12/09 13:27:26;;;;;;;51.95;28.35;;;;;;;;;;4362558;32;20031;-74
2021/12/09 13:30:24;;;;;;;58.60;26.95;;;;;;;;;;4362655;32;20031;-74
2021/12/09 13:33:04;;;;;;;51.08;27.15;;;;;;;;;;4348560;33;20039;-74
2021/12/09 13:46:27;;;;;;;;;;;;;;;;;;4363398;32;20054;-74
2021/12/09 13:54:33;;;;;;;56.20;25.45;;;;;;;;;;4361979;32;20061;-73
2021/12/09 13:57:11;;;;;;;47.20;24.58;;;;;;;;;;4362386;32;20047;-75
2021/12/09 13:59:43;;;;;;;44.85;21.65;;;;;;;;;;4362099;32;20450;-74
2021/12/09 14:02:22;;;;;;;;;;;;;;;;;;;;;
2021/12/09 14:04:48;;;;;;;41.85;21.23;;;;;;;;;;4362961;32;20043;-74
2021/12/09 14:07:21;;;;;;;;;;;;;;;;;;4361542;32;20073;-73
2021/12/09 14:09:58;;;;;;;37.50;20.65;;;;;;;;;;4362117;32;20352;-74
2021/12/09 14:12:32;;;;;;;34.90;19.37;;;;;;;;;;4361697;32;20078;-73
2021/12/09 14:15:36;;;;;;;34.08;19.00;;;;;;;;;;4361726;33;20074;-73
2021/12/09 14:18:00;;;;;;;37.03;19.00;;;;;;;;;;4360099;33;20032;-73
2021/12/09 14:20:25;;;;;;;51.95;22.90;;;;;;;;;;4352519;33;20035;-73
2021/12/09 14:22:50;;;;;;;;;;;;;;;;;;4362946;32;20378;-73
2021/12/09 14:25:25;;;;;;;37.82;18.82;;;;;;;;;;4362367;32;19974;-73
2021/12/09 14:27:52;;;;;;;38.63;18.40;;;;;;;;;;4348317;33;20027;-74
2021/12/09 14:30:17;;;;;;;34.33;17.08;;;;;;;;;;4362416;32;20117;-74
2021/12/09 14:32:42;;;;;;;;;;;;;;;;;;4362679;32;20031;-74
2021/12/09 14:35:08;;;;;;;43.13;19.33;;;;;;;;;;4362224;32;19968;-74
2021/12/09 14:37:33;;;;;;;;;;;;;;;;;;4362473;32;20061;-73
2021/12/09 14:40:07;;;;;;;44.90;18.20;;;;;;;;;;4362632;32;20297;-73
2021/12/09 14:42:35;;;;;;;50.10;18.77;;;;;;;;;;4362355;32;20043;-73
2021/12/09 14:45:02;;;;;;;46.35;20.45;;;;;;;;;;4361967;32;20058;-73
2021/12/09 14:47:39;;;;;;;42.42;19.50;;;;;;;;;;4361994;32;20118;-73
2021/12/09 14:50:31;;;;;;;46.83;21.42;;;;;;;;;;4362756;32;20027;-73
2021/12/09 14:52:56;;;;;;;39.47;19.20;;;;;;;;;;4361057;33;20306;-72
2021/12/09 14:55:26;;;;;;;;;;;;;;;;;;4348762;32;20102;-73
2021/12/09 14:58:03;;;;;;;39.75;18.10;;;;;;;;;;4361927;32;19946;-73
2021/12/09 15:01:03;;;;;;;42.90;19.65;;;;;;;;;;4348501;33;20085;-73
2021/12/09 15:03:36;;;;;;;41.08;18.33;;;;;;;;;;4355214;32;20464;-73
2021/12/09 15:06:02;;;;;;;34.88;17.87;;;;;;;;;;4361857;32;20090;-73
2021/12/09 15:08:39;;;;;;;;;;;;;;;;;;4362763;32;20039;-73
2021/12/09 15:11:23;;;;;;;45.83;17.95;;;;;;;;;;4361937;32;19981;-73
2021/12/09 15:13:51;;;;;;;49.17;19.92;;;;;;;;;;4361763;33;20054;-73
2021/12/09 15:16:31;;;;;;;44.05;17.37;;;;;;;;;;4361921;32;20202;-73
2021/12/09 15:18:57;;;;;;;37.45;17.65;;;;;;;;;;4361877;32;20067;-72
2021/12/09 15:21:22;;;;;;;;;;;;;;;;;;4361810;32;20110;-73
2021/12/09 15:23:52;;;;;;;37.08;16.83;;;;;;;;;;4360630;32;20061;-72
2021/12/09 15:26:23;;;;;;;49.85;19.52;;;;;;;;;;4360789;32;20059;-73
2021/12/09 15:29:01;;;;;;;39.67;18.73;;;;;;;;;;4360879;33;20027;-73
2021/12/09 15:31:26;;;;;;;42.47;17.70;;;;;;;;;;4348545;33;20105;-73
2021/12/09 15:33:52;;;;;;;;;;;;;;;;;;4348051;33;20027;-74
2021/12/09 15:36:25;;;;;;;36.10;17.40;;;;;;;;;;4344271;32;19972;-73
2021/12/09 15:39:07;;;;;;;42.25;19.12;;;;;;;;;;4360209;32;20480;-74
2021/12/09 15:41:33;;;;;;;37.83;16.15;;;;;;;;;;4360676;33;20096;-73
2021/12/09 15:44:21;;;;;;;;;;;;;;;;;;;;;
2021/12/09 15:47:03;;;;;;;29.92;14.43;;;;;;;;;;4360670;32;20066;-73
2021/12/09 15:49:48;;;;;;;30.58;15.63;;;;;;;;;;4361070;33;20414;-73
2021/12/09 15:52:32;;;;;;;35.35;15.05;;;;;;;;;;4361383;32;20031;-74
2021/12/09 15:54:59;;;;;;;35.15;15.23;;;;;;;;;;4368980;32;20046;-73
2021/12/09 15:57:29;;;;;;;38.10;14.57;;;;;;;;;;4375262;32;20047;-73
2021/12/09 15:59:54;;;;;;;35.08;14.50;;;;;;;;;;4373356;32;20039;-73
2021/12/09 16:05:25;;;;;;;41.22;14.27;;;;;;;;;;4376340;32;19968;-73
2021/12/09 16:08:09;;;;;;;40.90;15.57;;;;;;;;;;4376150;32;20156;-74
2021/12/09 16:10:44;;;;;;;26.17;13.57;;;;;;;;;;4376629;32;20072;-75
2021/12/09 16:13:10;;;;;;;31.93;15.30;;;;;;;;;;4375758;32;20088;-74
2021/12/09 16:15:49;;;;;;;;;;;;;;;;;;4376051;32;20341;-74
2021/12/09 16:18:27;;;;;;;;;;;;;;;;;;;;;
2021/12/09 16:21:04;;;;;;;40.60;15.68;;;;;;;;;;4373561;32;20062;-74
2021/12/09 16:24:01;;;;;;;41.97;14.05;;;;;;;;;;4376518;32;20414;-74
2021/12/09 16:26:33;;;;;;;34.65;16.15;;;;;;;;;;4359651;32;20119;-73
2021/12/09 16:29:09;;;;;;;60.63;18.87;;;;;;;;;;4376195;32;20026;-74
2021/12/09 16:34:47;;;;;;;49.55;18.73;;;;;;;;;;4299949;33;20411;-73
2021/12/09 16:37:13;;;;;;;38.47;18.70;;;;;;;;;;4300038;33;20036;-74
2021/12/09 16:42:44;;;;;;;35.03;15.05;;;;;;;;;;4343967;33;20294;-73